sensor_id;sensor_type;location;lat;lon;timestamp;pressure;altitude;pressure_sealevel;temperature;humidity
54872;BME280;43914;57.680;11.982;2022-09-30T00:00:13;100005.47;;;6.19;94.04
54872;BME280;43914;57.680;11.982;2022-09-30T00:02:39;100007.48;;;6.17;94.45
54872;BME280;43914;57.680;11.982;2022-09-30T00:05:06;100007.81;;;6.18;94.71
54872;BME280;43914;57.680;11.982;2022-09-30T00:07:32;100007.00;;;6.18;94.44
54872;BME280;43914;57.680;11.982;2022-09-30T00:09:58;100008.00;;;6.17;94.67
54872;BME280;43914;57.680;11.982;2022-09-30T00:12:24;100012.01;;;6.17;94.70
54872;BME280;43914;57.680;11.982;2022-09-30T00:14:52;100008.49;;;6.16;94.90
54872;BME280;43914;57.680;11.982;2022-09-30T00:17:19;100007.16;;;6.16;94.96
54872;BME280;43914;57.680;11.982;2022-09-30T00:19:45;100016.83;;;6.17;94.86
54872;BME280;43914;57.680;11.982;2022-09-30T00:22:12;100013.34;;;6.17;95.04
54872;BME280;43914;57.680;11.982;2022-09-30T00:24:38;100013.67;;;6.18;95.32
54872;BME280;43914;57.680;11.982;2022-09-30T00:27:04;100014.48;;;6.18;95.28
54872;BME280;43914;57.680;11.982;2022-09-30T00:29:31;100023.66;;;6.20;95.25
54872;BME280;43914;57.680;11.982;2022-09-30T00:31:57;100021.13;;;6.23;95.39
54872;BME280;43914;57.680;11.982;2022-09-30T00:34:23;100016.64;;;6.23;95.42
54872;BME280;43914;57.680;11.982;2022-09-30T00:36:51;100019.16;;;6.25;95.38
54872;BME280;43914;57.680;11.982;2022-09-30T00:39:27;100009.48;;;6.19;94.73
54872;BME280;43914;57.680;11.982;2022-09-30T00:42:01;100007.00;;;6.18;95.35
54872;BME280;43914;57.680;11.982;2022-09-30T00:44:49;100007.81;;;6.18;95.42
54872;BME280;43914;57.680;11.982;2022-09-30T00:50:35;100005.17;;;6.14;95.91
54872;BME280;43914;57.680;11.982;2022-09-30T00:53:09;100006.02;;;6.15;95.96
54872;BME280;43914;57.680;11.982;2022-09-30T00:58:36;100003.83;;;6.14;96.05
54872;BME280;43914;57.680;11.982;2022-09-30T01:01:10;100002.02;;;6.15;96.34
54872;BME280;43914;57.680;11.982;2022-09-30T01:03:43;100010.34;;;6.16;96.17
54872;BME280;43914;57.680;11.982;2022-09-30T01:06:10;100008.33;;;6.18;96.85
54872;BME280;43914;57.680;11.982;2022-09-30T01:08:38;100007.66;;;6.20;96.95
54872;BME280;43914;57.680;11.982;2022-09-30T01:11:05;100009.45;;;6.24;96.99
54872;BME280;43914;57.680;11.982;2022-09-30T01:13:33;100001.80;;;6.25;96.87
54872;BME280;43914;57.680;11.982;2022-09-30T01:28:07;100002.59;;;6.29;96.46
54872;BME280;43914;57.680;11.982;2022-09-30T01:30:58;100006.25;;;6.32;96.38
54872;BME280;43914;57.680;11.982;2022-09-30T01:42:10;100006.22;;;6.37;96.21
54872;BME280;43914;57.680;11.982;2022-09-30T01:45:09;99998.55;;;6.38;95.90
54872;BME280;43914;57.680;11.982;2022-09-30T01:47:55;100003.72;;;6.39;95.80
54872;BME280;43914;57.680;11.982;2022-09-30T01:54:23;100000.40;;;6.37;95.74
54872;BME280;43914;57.680;11.982;2022-09-30T01:56:23;100000.40;;;6.37;95.58
54872;BME280;43914;57.680;11.982;2022-09-30T01:58:53;100006.74;;;6.36;95.36
54872;BME280;43914;57.680;11.982;2022-09-30T02:01:25;100013.09;;;6.35;95.18
54872;BME280;43914;57.680;11.982;2022-09-30T02:03:59;100016.58;;;6.35;95.30
54872;BME280;43914;57.680;11.982;2022-09-30T02:06:34;100011.42;;;6.34;95.23
54872;BME280;43914;57.680;11.982;2022-09-30T02:09:24;100013.58;;;6.34;94.98
54872;BME280;43914;57.680;11.982;2022-09-30T02:11:53;100005.59;;;6.30;94.87
54872;BME280;43914;57.680;11.982;2022-09-30T02:17:04;100005.95;;;6.27;95.04
54872;BME280;43914;57.680;11.982;2022-09-30T02:19:44;100002.45;;;6.23;95.19
54872;BME280;43914;57.680;11.982;2022-09-30T02:22:30;100004.64;;;6.23;95.37
54872;BME280;43914;57.680;11.982;2022-09-30T02:25:05;100004.12;;;6.24;95.38
54872;BME280;43914;57.680;11.982;2022-09-30T02:27:36;100009.97;;;6.23;95.46
54872;BME280;43914;57.680;11.982;2022-09-30T02:30:08;100007.30;;;6.23;95.36
54872;BME280;43914;57.680;11.982;2022-09-30T02:32:47;100006.98;;;6.22;95.28
54872;BME280;43914;57.680;11.982;2022-09-30T02:35:25;100009.64;;;6.22;95.14
54872;BME280;43914;57.680;11.982;2022-09-30T02:37:57;100004.98;;;6.20;95.23
54872;BME280;43914;57.680;11.982;2022-09-30T02:40:27;100012.99;;;6.20;95.12
54872;BME280;43914;57.680;11.982;2022-09-30T02:42:56;100011.33;;;6.19;95.07
54872;BME280;43914;57.680;11.982;2022-09-30T02:45:23;100014.48;;;6.18;95.06
54872;BME280;43914;57.680;11.982;2022-09-30T02:50:52;100009.83;;;6.16;95.05
54872;BME280;43914;57.680;11.982;2022-09-30T02:53:34;100011.02;;;6.14;95.01
54872;BME280;43914;57.680;11.982;2022-09-30T02:56:10;100008.03;;;6.13;95.14
54872;BME280;43914;57.680;11.982;2022-09-30T02:58:37;100017.03;;;6.12;95.00
54872;BME280;43914;57.680;11.982;2022-09-30T03:01:06;100012.86;;;6.09;95.00
54872;BME280;43914;57.680;11.982;2022-09-30T03:03:56;100023.20;;;6.08;95.10
54872;BME280;43914;57.680;11.982;2022-09-30T03:06:08;100015.88;;;6.06;95.30
54872;BME280;43914;57.680;11.982;2022-09-30T03:08:35;100015.03;;;6.05;95.39
54872;BME280;43914;57.680;11.982;2022-09-30T03:11:02;100024.05;;;6.04;95.32
54872;BME280;43914;57.680;11.982;2022-09-30T03:16:23;100027.72;;;6.03;95.21
54872;BME280;43914;57.680;11.982;2022-09-30T03:19:09;100020.39;;;6.01;95.29
54872;BME280;43914;57.680;11.982;2022-09-30T03:27:59;100029.38;;;5.96;95.50
54872;BME280;43914;57.680;11.982;2022-09-30T03:30:34;100037.72;;;5.97;95.47
54872;BME280;43914;57.680;11.982;2022-09-30T03:36:01;100032.88;;;5.92;95.87
54872;BME280;43914;57.680;11.982;2022-09-30T03:44:11;100050.39;;;5.95;96.22
54872;BME280;43914;57.680;11.982;2022-09-30T03:46:49;100045.91;;;5.96;96.54
54872;BME280;43914;57.680;11.982;2022-09-30T03:49:26;100045.39;;;5.96;96.49
54872;BME280;43914;57.680;11.982;2022-09-30T03:51:58;100059.23;;;6.00;96.44
54872;BME280;43914;57.680;11.982;2022-09-30T03:54:25;100063.40;;;6.02;96.52
54872;BME280;43914;57.680;11.982;2022-09-30T03:56:51;100063.73;;;6.03;96.22
54872;BME280;43914;57.680;11.982;2022-09-30T03:59:23;100066.56;;;6.06;96.27
54872;BME280;43914;57.680;11.982;2022-09-30T04:01:52;100067.06;;;6.10;96.35
54872;BME280;43914;57.680;11.982;2022-09-30T04:04:18;100073.06;;;6.12;96.34
54872;BME280;43914;57.680;11.982;2022-09-30T04:06:45;100069.05;;;6.16;96.40
54872;BME280;43914;57.680;11.982;2022-09-30T04:09:12;100074.36;;;6.20;96.62
54872;BME280;43914;57.680;11.982;2022-09-30T04:11:38;100078.34;;;6.24;96.49
54872;BME280;43914;57.680;11.982;2022-09-30T04:14:05;100078.66;;;6.29;96.45
54872;BME280;43914;57.680;11.982;2022-09-30T04:16:31;100078.31;;;6.32;96.33
54872;BME280;43914;57.680;11.982;2022-09-30T04:18:58;100079.81;;;6.35;96.10
54872;BME280;43914;57.680;11.982;2022-09-30T04:21:24;100085.62;;;6.39;96.15
54872;BME280;43914;57.680;11.982;2022-09-30T04:23:53;100084.29;;;6.43;96.15
54872;BME280;43914;57.680;11.982;2022-09-30T04:26:19;100089.28;;;6.46;96.16
54872;BME280;43914;57.680;11.982;2022-09-30T04:28:45;100082.74;;;6.48;96.05
54872;BME280;43914;57.680;11.982;2022-09-30T04:31:12;100082.59;;;6.50;95.82
54872;BME280;43914;57.680;11.982;2022-09-30T04:33:43;100087.25;;;6.52;95.72
54872;BME280;43914;57.680;11.982;2022-09-30T04:36:10;100088.91;;;6.53;95.53
54872;BME280;43914;57.680;11.982;2022-09-30T04:38:38;100080.57;;;6.52;95.53
54872;BME280;43914;57.680;11.982;2022-09-30T04:41:05;100085.39;;;6.53;95.36
54872;BME280;43914;57.680;11.982;2022-09-30T04:43:32;100081.91;;;6.52;95.35
54872;BME280;43914;57.680;11.982;2022-09-30T04:45:59;100079.05;;;6.54;95.36
54872;BME280;43914;57.680;11.982;2022-09-30T04:48:25;100080.70;;;6.55;95.30
54872;BME280;43914;57.680;11.982;2022-09-30T04:50:53;100082.05;;;6.55;95.25
54872;BME280;43914;57.680;11.982;2022-09-30T04:53:19;100076.70;;;6.55;95.35
54872;BME280;43914;57.680;11.982;2022-09-30T04:55:45;100082.21;;;6.57;95.28
54872;BME280;43914;57.680;11.982;2022-09-30T04:58:12;100084.39;;;6.58;95.27
54872;BME280;43914;57.680;11.982;2022-09-30T05:00:38;100087.03;;;6.62;95.66
54872;BME280;43914;57.680;11.982;2022-09-30T05:03:04;100085.70;;;6.62;95.29
54872;BME280;43914;57.680;11.982;2022-09-30T05:05:31;100083.84;;;6.62;95.27
54872;BME280;43914;57.680;11.982;2022-09-30T05:07:59;100091.51;;;6.66;95.58
54872;BME280;43914;57.680;11.982;2022-09-30T05:10:28;100086.16;;;6.66;95.31
54872;BME280;43914;57.680;11.982;2022-09-30T05:12:55;100083.66;;;6.68;95.77
54872;BME280;43914;57.680;11.982;2022-09-30T05:15:23;100089.14;;;6.71;95.44
54872;BME280;43914;57.680;11.982;2022-09-30T05:17:49;100086.83;;;6.72;95.63
54872;BME280;43914;57.680;11.982;2022-09-30T05:20:16;100089.14;;;6.75;95.38
54872;BME280;43914;57.680;11.982;2022-09-30T05:22:42;100090.15;;;6.74;95.27
54872;BME280;43914;57.680;11.982;2022-09-30T05:25:09;100085.14;;;6.75;95.33
54872;BME280;43914;57.680;11.982;2022-09-30T05:27:35;100087.13;;;6.77;95.69
54872;BME280;43914;57.680;11.982;2022-09-30T05:30:01;100087.78;;;6.79;95.52
54872;BME280;43914;57.680;11.982;2022-09-30T05:32:29;100081.59;;;6.78;95.13
54872;BME280;43914;57.680;11.982;2022-09-30T05:34:56;100088.27;;;6.78;95.17
54872;BME280;43914;57.680;11.982;2022-09-30T05:37:24;100088.11;;;6.80;95.14
54872;BME280;43914;57.680;11.982;2022-09-30T05:39:50;100097.78;;;6.81;95.27
54872;BME280;43914;57.680;11.982;2022-09-30T05:42:16;100098.92;;;6.83;95.17
54872;BME280;43914;57.680;11.982;2022-09-30T05:44:43;100089.25;;;6.82;95.08
54872;BME280;43914;57.680;11.982;2022-09-30T05:47:09;100099.77;;;6.83;95.16
54872;BME280;43914;57.680;11.982;2022-09-30T05:49:36;100092.58;;;6.84;95.30
54872;BME280;43914;57.680;11.982;2022-09-30T05:52:02;100092.58;;;6.84;95.20
54872;BME280;43914;57.680;11.982;2022-09-30T05:54:29;100090.42;;;6.83;95.07
54872;BME280;43914;57.680;11.982;2022-09-30T05:56:56;100081.59;;;6.78;95.00
54872;BME280;43914;57.680;11.982;2022-09-30T05:59:22;100079.47;;;6.74;94.77
54872;BME280;43914;57.680;11.982;2022-09-30T06:01:48;100077.64;;;6.70;94.98
54872;BME280;43914;57.680;11.982;2022-09-30T06:04:14;100084.31;;;6.70;95.37
54872;BME280;43914;57.680;11.982;2022-09-30T06:06:40;100086.14;;;6.70;95.35
54872;BME280;43914;57.680;11.982;2022-09-30T06:09:06;100080.14;;;6.68;95.25
54872;BME280;43914;57.680;11.982;2022-09-30T06:11:33;100086.49;;;6.67;95.25
54872;BME280;43914;57.680;11.982;2022-09-30T06:13:59;100088.48;;;6.69;95.47
54872;BME280;43914;57.680;11.982;2022-09-30T06:16:25;100088.98;;;6.72;95.71
54872;BME280;43914;57.680;11.982;2022-09-30T06:18:51;100084.45;;;6.77;95.97
54872;BME280;43914;57.680;11.982;2022-09-30T06:21:18;100084.08;;;6.84;96.08
54872;BME280;43914;57.680;11.982;2022-09-30T06:23:46;100091.02;;;6.93;96.04
54872;BME280;43914;57.680;11.982;2022-09-30T06:26:13;100083.82;;;6.98;95.96
54872;BME280;43914;57.680;11.982;2022-09-30T06:28:40;100080.63;;;7.03;95.66
54872;BME280;43914;57.680;11.982;2022-09-30T06:31:07;100083.08;;;7.08;95.73
54872;BME280;43914;57.680;11.982;2022-09-30T06:33:34;100089.56;;;7.14;95.28
54872;BME280;43914;57.680;11.982;2022-09-30T06:36:00;100089.03;;;7.19;95.30
54872;BME280;43914;57.680;11.982;2022-09-30T06:38:30;100089.81;;;7.24;95.21
54872;BME280;43914;57.680;11.982;2022-09-30T06:40:58;100086.09;;;7.29;95.03
54872;BME280;43914;57.680;11.982;2022-09-30T06:43:25;100094.24;;;7.35;95.00
54872;BME280;43914;57.680;11.982;2022-09-30T06:45:51;100093.71;;;7.40;95.12
54872;BME280;43914;57.680;11.982;2022-09-30T06:48:18;100096.48;;;7.47;95.00
54872;BME280;43914;57.680;11.982;2022-09-30T06:50:44;100095.95;;;7.51;94.84
54872;BME280;43914;57.680;11.982;2022-09-30T06:53:11;100097.89;;;7.58;94.53
54872;BME280;43914;57.680;11.982;2022-09-30T06:55:38;100094.84;;;7.65;94.38
54872;BME280;43914;57.680;11.982;2022-09-30T06:58:12;100096.49;;;7.85;96.48
54872;BME280;43914;57.680;11.982;2022-09-30T07:00:38;100082.05;;;7.90;94.95
54872;BME280;43914;57.680;11.982;2022-09-30T07:03:05;100077.67;;;7.93;94.30
54872;BME280;43914;57.680;11.982;2022-09-30T07:05:33;100065.91;;;7.99;93.92
54872;BME280;43914;57.680;11.982;2022-09-30T07:07:59;100063.17;;;8.03;93.62
54872;BME280;43914;57.680;11.982;2022-09-30T07:10:26;100058.63;;;8.07;93.37
54872;BME280;43914;57.680;11.982;2022-09-30T07:12:52;100062.91;;;8.13;93.28
54872;BME280;43914;57.680;11.982;2022-09-30T07:15:20;100057.01;;;8.17;93.10
54872;BME280;43914;57.680;11.982;2022-09-30T07:17:51;100061.30;;;8.22;92.80
54872;BME280;43914;57.680;11.982;2022-09-30T07:20:18;100054.55;;;8.27;92.61
54872;BME280;43914;57.680;11.982;2022-09-30T07:22:44;100051.81;;;8.31;92.47
54872;BME280;43914;57.680;11.982;2022-09-30T07:25:10;100050.95;;;8.34;92.24
54872;BME280;43914;57.680;11.982;2022-09-30T07:27:36;100042.66;;;8.40;92.14
54872;BME280;43914;57.680;11.982;2022-09-30T07:30:04;100039.95;;;8.44;91.85
54872;BME280;43914;57.680;11.982;2022-09-30T07:32:30;100044.28;;;8.45;91.59
54872;BME280;43914;57.680;11.982;2022-09-30T07:34:57;100041.58;;;8.49;91.78
54872;BME280;43914;57.680;11.982;2022-09-30T07:37:25;100046.23;;;8.51;91.40
54872;BME280;43914;57.680;11.982;2022-09-30T07:39:51;100052.41;;;8.52;91.21
54872;BME280;43914;57.680;11.982;2022-09-30T07:42:21;100055.55;;;8.56;91.39
54872;BME280;43914;57.680;11.982;2022-09-30T07:44:47;100058.55;;;8.57;91.09
54872;BME280;43914;57.680;11.982;2022-09-30T07:47:18;100057.70;;;8.56;91.09
54872;BME280;43914;57.680;11.982;2022-09-30T07:49:45;100051.02;;;8.56;91.14
54872;BME280;43914;57.680;11.982;2022-09-30T07:52:11;100058.88;;;8.58;91.35
54872;BME280;43914;57.680;11.982;2022-09-30T07:54:39;100059.51;;;8.60;91.51
54872;BME280;43914;57.680;11.982;2022-09-30T07:57:11;100062.34;;;8.62;91.41
54872;BME280;43914;57.680;11.982;2022-09-30T07:59:37;100065.77;;;8.67;91.48
54872;BME280;43914;57.680;11.982;2022-09-30T08:02:05;100054.35;;;8.69;91.22
54872;BME280;43914;57.680;11.982;2022-09-30T08:04:33;100059.91;;;8.68;91.15
54872;BME280;43914;57.680;11.982;2022-09-30T08:07:00;100056.53;;;8.70;91.39
54872;BME280;43914;57.680;11.982;2022-09-30T08:09:28;100055.98;;;8.74;91.41
54872;BME280;43914;57.680;11.982;2022-09-30T08:11:55;100056.41;;;8.78;91.57
54872;BME280;43914;57.680;11.982;2022-09-30T08:14:23;100046.48;;;8.83;91.88
54872;BME280;43914;57.680;11.982;2022-09-30T08:16:51;100055.55;;;8.92;91.92
54872;BME280;43914;57.680;11.982;2022-09-30T08:19:20;100059.30;;;8.98;91.71
54872;BME280;43914;57.680;11.982;2022-09-30T08:21:48;100059.61;;;8.99;91.35
54872;BME280;43914;57.680;11.982;2022-09-30T08:24:16;100065.44;;;9.03;91.38
54872;BME280;43914;57.680;11.982;2022-09-30T08:26:42;100064.91;;;9.03;91.44
54872;BME280;43914;57.680;11.982;2022-09-30T08:29:09;100066.00;;;9.09;91.72
54872;BME280;43914;57.680;11.982;2022-09-30T08:31:38;100064.53;;;9.17;91.66
54872;BME280;43914;57.680;11.982;2022-09-30T08:34:07;100069.08;;;9.28;91.67
54872;BME280;43914;57.680;11.982;2022-09-30T08:36:33;100057.50;;;9.38;91.83
54872;BME280;43914;57.680;11.982;2022-09-30T08:38:59;100059.02;;;9.47;91.46
54872;BME280;43914;57.680;11.982;2022-09-30T08:44:30;100051.98;;;9.57;90.78
54872;BME280;43914;57.680;11.982;2022-09-30T08:52:50;100056.74;;;9.90;90.80
54872;BME280;43914;57.680;11.982;2022-09-30T08:55:21;100058.84;;;9.95;90.62
54872;BME280;43914;57.680;11.982;2022-09-30T08:57:51;100061.05;;;10.02;90.30
54872;BME280;43914;57.680;11.982;2022-09-30T09:00:20;100069.66;;;10.08;89.98
54872;BME280;43914;57.680;11.982;2022-09-30T09:02:58;100072.06;;;10.14;89.54
54872;BME280;43914;57.680;11.982;2022-09-30T09:11:45;100060.04;;;10.28;88.41
54872;BME280;43914;57.680;11.982;2022-09-30T09:19:53;100051.81;;;10.47;86.66
54872;BME280;43914;57.680;11.982;2022-09-30T09:22:20;100048.28;;;10.46;85.86
54872;BME280;43914;57.680;11.982;2022-09-30T09:24:49;100053.47;;;10.48;85.28
54872;BME280;43914;57.680;11.982;2022-09-30T09:30:08;100050.91;;;10.57;85.42
54872;BME280;43914;57.680;11.982;2022-09-30T09:32:36;100043.91;;;10.63;85.22
54872;BME280;43914;57.680;11.982;2022-09-30T09:37:56;100046.55;;;10.87;84.55
54872;BME280;43914;57.680;11.982;2022-09-30T09:44:04;100047.41;;;11.01;83.22
54872;BME280;43914;57.680;11.982;2022-09-30T09:46:45;100038.09;;;11.10;82.90
54872;BME280;43914;57.680;11.982;2022-09-30T09:54:50;100033.87;;;11.25;81.89
54872;BME280;43914;57.680;11.982;2022-09-30T09:57:19;100027.34;;;11.31;81.40
54872;BME280;43914;57.680;11.982;2022-09-30T10:02:30;100020.33;;;11.43;80.38
54872;BME280;43914;57.680;11.982;2022-09-30T10:04:57;100017.84;;;11.48;80.27
54872;BME280;43914;57.680;11.982;2022-09-30T10:07:30;100011.50;;;11.52;79.22
54872;BME280;43914;57.680;11.982;2022-09-30T10:12:44;100021.34;;;11.62;79.23
54872;BME280;43914;57.680;11.982;2022-09-30T10:15:23;100026.69;;;11.69;78.93
54872;BME280;43914;57.680;11.982;2022-09-30T10:17:52;100012.11;;;11.74;78.79
54872;BME280;43914;57.680;11.982;2022-09-30T10:23:14;100012.69;;;11.90;78.62
54872;BME280;43914;57.680;11.982;2022-09-30T10:26:00;100010.70;;;12.01;78.39
54872;BME280;43914;57.680;11.982;2022-09-30T10:28:43;100007.19;;;12.07;76.64
54872;BME280;43914;57.680;11.982;2022-09-30T10:31:23;99992.63;;;12.15;76.30
54872;BME280;43914;57.680;11.982;2022-09-30T10:34:10;99998.00;;;12.22;75.19
54872;BME280;43914;57.680;11.982;2022-09-30T10:36:45;99997.67;;;12.28;75.73
54872;BME280;43914;57.680;11.982;2022-09-30T10:39:21;99999.61;;;12.36;75.40
54872;BME280;43914;57.680;11.982;2022-09-30T10:41:51;99993.05;;;12.41;74.39
54872;BME280;43914;57.680;11.982;2022-09-30T10:44:29;99992.48;;;12.49;73.64
54872;BME280;43914;57.680;11.982;2022-09-30T10:47:00;99994.02;;;12.54;73.30
54872;BME280;43914;57.680;11.982;2022-09-30T10:49:36;99988.01;;;12.52;72.83
54872;BME280;43914;57.680;11.982;2022-09-30T10:52:21;99987.14;;;12.58;72.19
54872;BME280;43914;57.680;11.982;2022-09-30T10:54:57;99988.59;;;12.77;73.20
54872;BME280;43914;57.680;11.982;2022-09-30T10:57:34;99985.80;;;12.90;72.78
54872;BME280;43914;57.680;11.982;2022-09-30T11:00:07;99984.80;;;13.01;72.69
54872;BME280;43914;57.680;11.982;2022-09-30T11:03:05;99987.67;;;13.06;72.76
54872;BME280;43914;57.680;11.982;2022-09-30T11:05:42;99983.64;;;13.15;72.36
54872;BME280;43914;57.680;11.982;2022-09-30T11:08:24;99986.24;;;13.28;72.56
54872;BME280;43914;57.680;11.982;2022-09-30T11:11:17;99983.70;;;13.34;72.24
54872;BME280;43914;57.680;11.982;2022-09-30T11:14:01;99981.00;;;13.34;71.36
54872;BME280;43914;57.680;11.982;2022-09-30T11:19:48;99981.66;;;13.29;70.34
54872;BME280;43914;57.680;11.982;2022-09-30T11:22:38;99981.94;;;13.21;69.13
54872;BME280;43914;57.680;11.982;2022-09-30T11:25:11;99979.31;;;13.23;69.84
54872;BME280;43914;57.680;11.982;2022-09-30T11:28:03;99970.86;;;13.29;69.99
54872;BME280;43914;57.680;11.982;2022-09-30T11:30:47;99969.22;;;13.37;70.50
54872;BME280;43914;57.680;11.982;2022-09-30T11:33:38;99968.45;;;13.46;70.14
54872;BME280;43914;57.680;11.982;2022-09-30T11:41:59;99965.56;;;13.41;70.28
54872;BME280;43914;57.680;11.982;2022-09-30T11:44:44;99970.36;;;13.39;69.98
54872;BME280;43914;57.680;11.982;2022-09-30T11:53:29;99957.31;;;13.36;69.10
54872;BME280;43914;57.680;11.982;2022-09-30T11:59:04;99961.16;;;13.12;69.59
54872;BME280;43914;57.680;11.982;2022-09-30T12:01:41;99953.95;;;13.06;69.99
54872;BME280;43914;57.680;11.982;2022-09-30T12:04:41;99951.09;;;13.01;70.23
54872;BME280;43914;57.680;11.982;2022-09-30T12:07:14;99953.92;;;12.96;70.81
54872;BME280;43914;57.680;11.982;2022-09-30T12:09:45;99957.17;;;12.89;71.11
54872;BME280;43914;57.680;11.982;2022-09-30T12:12:17;99951.62;;;12.84;71.49
54872;BME280;43914;57.680;11.982;2022-09-30T12:14:47;99945.62;;;12.82;71.83
54872;BME280;43914;57.680;11.982;2022-09-30T12:20:04;99946.77;;;12.83;72.38
54872;BME280;43914;57.680;11.982;2022-09-30T12:22:43;99951.31;;;12.83;72.70
54872;BME280;43914;57.680;11.982;2022-09-30T12:25:14;99959.20;;;12.84;72.74
54872;BME280;43914;57.680;11.982;2022-09-30T12:27:45;99952.59;;;12.80;72.99
54872;BME280;43914;57.680;11.982;2022-09-30T12:30:16;99951.36;;;12.76;73.77
54872;BME280;43914;57.680;11.982;2022-09-30T12:36:16;99948.75;;;12.79;75.86
54872;BME280;43914;57.680;11.982;2022-09-30T12:50:19;99924.52;;;13.13;75.73
54872;BME280;43914;57.680;11.982;2022-09-30T12:52:48;99924.87;;;13.08;75.64
54872;BME280;43914;57.680;11.982;2022-09-30T12:57:54;99924.16;;;12.94;75.11
54872;BME280;43914;57.680;11.982;2022-09-30T13:00:24;99925.25;;;12.86;75.45
54872;BME280;43914;57.680;11.982;2022-09-30T13:02:56;99925.37;;;12.73;76.31
54872;BME280;43914;57.680;11.982;2022-09-30T13:10:44;99916.75;;;12.41;79.85
54872;BME280;43914;57.680;11.982;2022-09-30T13:13:24;99913.69;;;12.37;80.50
54872;BME280;43914;57.680;11.982;2022-09-30T13:15:55;99905.63;;;12.31;81.08
54872;BME280;43914;57.680;11.982;2022-09-30T13:34:27;99897.80;;;12.00;84.44
54872;BME280;43914;57.680;11.982;2022-09-30T13:37:03;99892.92;;;12.06;84.66
54872;BME280;43914;57.680;11.982;2022-09-30T13:39:51;99885.38;;;12.05;84.79
54872;BME280;43914;57.680;11.982;2022-09-30T13:47:49;99879.09;;;12.18;85.30
54872;BME280;43914;57.680;11.982;2022-09-30T13:50:22;99874.48;;;12.25;85.40
54872;BME280;43914;57.680;11.982;2022-09-30T13:53:10;99870.57;;;12.37;85.42
54872;BME280;43914;57.680;11.982;2022-09-30T13:55:41;99869.16;;;12.44;85.15
54872;BME280;43914;57.680;11.982;2022-09-30T13:58:15;99867.16;;;12.49;85.10
54872;BME280;43914;57.680;11.982;2022-09-30T14:12:54;99863.66;;;12.74;85.21
54872;BME280;43914;57.680;11.982;2022-09-30T14:19:03;99859.87;;;12.81;85.53
54872;BME280;43914;57.680;11.982;2022-09-30T14:21:39;99853.28;;;12.87;85.48
54872;BME280;43914;57.680;11.982;2022-09-30T14:24:20;99856.34;;;12.90;85.21
54872;BME280;43914;57.680;11.982;2022-09-30T14:32:42;99837.27;;;13.01;84.49
54872;BME280;43914;57.680;11.982;2022-09-30T14:35:19;99835.25;;;13.06;84.50
54872;BME280;43914;57.680;11.982;2022-09-30T14:37:53;99833.75;;;13.10;84.03
54872;BME280;43914;57.680;11.982;2022-09-30T14:40:32;99829.70;;;13.10;83.74
54872;BME280;43914;57.680;11.982;2022-09-30T14:43:05;99824.84;;;13.19;83.54
54872;BME280;43914;57.680;11.982;2022-09-30T14:45:37;99817.20;;;13.16;83.41
54872;BME280;43914;57.680;11.982;2022-09-30T14:48:09;99816.81;;;13.12;83.08
54872;BME280;43914;57.680;11.982;2022-09-30T14:50:44;99817.87;;;13.02;82.94
54872;BME280;43914;57.680;11.982;2022-09-30T14:53:30;99809.23;;;12.93;83.30
54872;BME280;43914;57.680;11.982;2022-09-30T14:55:55;99806.59;;;12.86;83.32
54872;BME280;43914;57.680;11.982;2022-09-30T14:58:25;99807.70;;;12.78;83.81
54872;BME280;43914;57.680;11.982;2022-09-30T15:01:15;99809.44;;;12.73;83.98
54872;BME280;43914;57.680;11.982;2022-09-30T15:03:47;99801.94;;;12.65;84.26
54872;BME280;43914;57.680;11.982;2022-09-30T15:06:18;99800.10;;;12.59;84.34
54872;BME280;43914;57.680;11.982;2022-09-30T15:08:52;99803.09;;;12.51;84.58
54872;BME280;43914;57.680;11.982;2022-09-30T15:11:26;99806.12;;;12.45;84.97
54872;BME280;43914;57.680;11.982;2022-09-30T15:14:07;99797.98;;;12.43;85.27
54872;BME280;43914;57.680;11.982;2022-09-30T15:16:43;99794.38;;;12.39;85.47
54872;BME280;43914;57.680;11.982;2022-09-30T15:19:28;99791.83;;;12.35;85.82
54872;BME280;43914;57.680;11.982;2022-09-30T15:21:55;99791.52;;;12.34;86.07
54872;BME280;43914;57.680;11.982;2022-09-30T15:24:24;99786.34;;;12.33;86.26
54872;BME280;43914;57.680;11.982;2022-09-30T15:26:52;99791.63;;;12.30;86.48
54872;BME280;43914;57.680;11.982;2022-09-30T15:29:20;99788.64;;;12.29;86.58
54872;BME280;43914;57.680;11.982;2022-09-30T15:31:54;99782.95;;;12.28;86.74
54872;BME280;43914;57.680;11.982;2022-09-30T15:34:27;99775.01;;;12.24;86.88
54872;BME280;43914;57.680;11.982;2022-09-30T15:36:59;99778.98;;;12.21;86.89
54872;BME280;43914;57.680;11.982;2022-09-30T15:39:29;99778.58;;;12.18;87.03
54872;BME280;43914;57.680;11.982;2022-09-30T15:42:36;99778.78;;;12.16;87.21
54872;BME280;43914;57.680;11.982;2022-09-30T15:50:54;99779.73;;;12.03;87.90
54872;BME280;43914;57.680;11.982;2022-09-30T15:53:44;99779.50;;;11.98;88.23
54872;BME280;43914;57.680;11.982;2022-09-30T15:56:24;99774.48;;;11.92;88.43
54872;BME280;43914;57.680;11.982;2022-09-30T15:58:59;99773.48;;;11.87;88.84
54872;BME280;43914;57.680;11.982;2022-09-30T16:01:46;99767.82;;;11.79;89.51
54872;BME280;43914;57.680;11.982;2022-09-30T16:06:50;99776.30;;;11.66;90.75
54872;BME280;43914;57.680;11.982;2022-09-30T16:09:29;99777.77;;;11.62;90.91
54872;BME280;43914;57.680;11.982;2022-09-30T16:14:58;99773.47;;;11.48;91.78
54872;BME280;43914;57.680;11.982;2022-09-30T16:17:32;99770.84;;;11.41;92.06
54872;BME280;43914;57.680;11.982;2022-09-30T16:27:55;99766.19;;;11.09;93.79
54872;BME280;43914;57.680;11.982;2022-09-30T16:30:29;99766.20;;;11.03;94.26
54872;BME280;43914;57.680;11.982;2022-09-30T16:32:58;99757.81;;;11.08;96.05
54872;BME280;43914;57.680;11.982;2022-09-30T16:35:30;99758.97;;;11.03;95.44